Aughwick, Pennsylvania
Current Conditions -  °F | °C
As of 12:53 PM on Sunday 23 Nov 2014 (Local Time) from KAOO Reporting Station
Clear Clear  
Wind Chill: 59°   Ceiling: Unl
Heat Index: 59°   Visibility: 10mi
Dew Point: 36°   Wind: 10mph
Humidity: 42%   Direction: 180°S
Pressure: 30.04"   Gusts: NA
Location:  40.4281°N, 77.8329°W
Report Text: KAOO 231753Z AUTO 18009KT 10SM CLR 15/02 A3004 RMK AO2 SLP177 T01500022 10150 20056 58029
Loading
Personal Weather Stations






























Interactive Weather Map New forecast layout! Learn more

10-Day Weather Forecast

Advertisements
Track Severe Weather on mobile